NCAR-RAP Real-Time Weather Data

Output produced by METARs form (08 May 2021  00:49 UTC)
found at http://weather.rap.ucar.edu/surface/
 
KSAD 072351Z AUTO 29017G26KT 10SM CLR 35/M11 A2981 RMK AO2 PK WND 30031/2335 SLP040 T03501111 10367 20300 56023
KSAD 072251Z AUTO 01004KT 10SM CLR 36/M09 A2982 RMK AO2 SLP040 T03611089
KSAD 072151Z AUTO 32008G19KT 10SM CLR 36/M07 A2985 RMK AO2 SLP048 T03561067
KSAD 072051Z AUTO 10SM CLR 34/M04 A2988 RMK AO2 SLP060 T03441039 58032
KSAD 071951Z AUTO 28011G18KT 10SM CLR 34/M01 A2992 RMK AO2 SLP072 T03391011
KSAD 071851Z AUTO VRB06KT 10SM CLR 32/02 A2996 RMK AO2 SLP085 T03220022
KSAD 071751Z AUTO VRB04KT 10SM CLR 31/03 A2999 RMK AO2 SLP094 T03110033 10317 20156 58011
KSAD 071651Z AUTO VRB03KT 10SM CLR 28/02 A3001 RMK AO2 SLP104 T02830022
KSAD 071551Z AUTO 23005KT 10SM CLR 27/03 A3002 RMK AO2 SLP110 T02670033
KSAD 071451Z AUTO 00000KT 10SM CLR 24/04 A3002 RMK AO2 SLP112 T02390039 51009
KSAD 071351Z AUTO 12003KT 10SM CLR 21/03 A3002 RMK AO2 SLP111 T02110033
KSAD 071251Z AUTO 00000KT 10SM CLR 17/M01 A3001 RMK AO2 SLP109 T01721011
KSAD 071151Z AUTO 22003KT 10SM CLR 18/00 A3000 RMK AO2 SLP102 T01780000 10289 20178 53005
KSAD 071051Z AUTO 15004KT 10SM CLR 19/M01 A2998 RMK AO2 SLP095 T01941006